Terminal Aerodrome Forecast
Issued by NWS

Home | Current Version | Previous Version | Text Only | Print | Product List | Glossary On
Versions: 1 2 3 4 5 6 7 8 9 10 11 12 13 14 15 16 17 18 19 20 21 22 23 24 25 26 27 28 29 30
000
FTUS45 KCYS 301100
TAFLAR
TAF
KLAR 301123Z 3012/3112 05008KT P6SM -RA SCT012 BKN020
     FM301900 34010KT P6SM -SHRA SCT015 BKN025
     FM310100 17007KT P6SM SCT060=

USA.gov is the U.S. government's official web portal to all federal, state and local government web resources and services.